createdAt,value
2022-12-13T00:04:28.334Z,-3.99
2022-12-13T00:10:43.137Z,-3.51
2022-12-13T00:20:18.687Z,-3.89
2022-12-13T00:23:22.493Z,-2.84
2022-12-13T00:29:19.165Z,-3.86
2022-12-13T00:32:00.688Z,-2.79
2022-12-13T00:41:05.893Z,-3.10
2022-12-13T00:43:58.182Z,-2.82
2022-12-13T00:46:42.257Z,-4.25
2022-12-13T00:49:36.976Z,-3.57
2022-12-13T00:52:19.416Z,-3.14
2022-12-13T00:55:07.167Z,-3.26
2022-12-13T01:01:03.303Z,-2.80
2022-12-13T01:04:06.356Z,-4.11
2022-12-13T01:06:57.629Z,-2.82
2022-12-13T01:12:56.454Z,-3.49
2022-12-13T01:16:00.170Z,-2.87
2022-12-13T01:18:50.777Z,-3.51
2022-12-13T01:21:51.889Z,-4.28
2022-12-13T01:27:14.793Z,-3.32
2022-12-13T01:30:14.874Z,-3.79
2022-12-13T01:33:14.279Z,-3.00
2022-12-13T01:35:44.007Z,-3.97
2022-12-13T01:38:26.222Z,-3.31
2022-12-13T01:41:01.877Z,-4.44
2022-12-13T01:44:31.526Z,-3.03
2022-12-13T01:50:30.921Z,-4.34
2022-12-13T01:53:09.412Z,-3.50
2022-12-13T01:55:52.470Z,-3.19
2022-12-13T02:01:36.911Z,-3.19
2022-12-13T02:04:10.377Z,-4.72
2022-12-13T02:07:01.112Z,-3.49
2022-12-13T02:09:40.389Z,-3.15
2022-12-13T02:12:14.444Z,-3.12
2022-12-13T02:14:51.017Z,-3.68
2022-12-13T02:17:36.107Z,-4.24
2022-12-13T02:20:54.336Z,-4.01
2022-12-13T02:24:15.194Z,-4.62
2022-12-13T02:27:30.635Z,-4.81
2022-12-13T02:30:39.043Z,-3.71
2022-12-13T02:33:32.400Z,-4.90
2022-12-13T02:36:19.684Z,-3.13
2022-12-13T02:38:54.791Z,-3.88
2022-12-13T02:41:33.049Z,-3.50
2022-12-13T02:44:22.253Z,-3.70
2022-12-13T02:47:00.856Z,-4.10
2022-12-13T02:49:39.819Z,-3.42
2022-12-13T02:52:22.344Z,-3.40
2022-12-13T02:55:08.121Z,-3.12
2022-12-13T02:57:50.756Z,-4.56
2022-12-13T03:00:32.350Z,-3.83
2022-12-13T03:03:21.275Z,-3.32
2022-12-13T03:06:01.041Z,-3.46
2022-12-13T03:08:47.621Z,-4.76
2022-12-13T03:11:30.482Z,-4.74
2022-12-13T03:14:11.743Z,-3.57
2022-12-13T03:16:44.041Z,-3.56
2022-12-13T03:19:14.105Z,-3.57
2022-12-13T03:22:05.531Z,-4.67
2022-12-13T03:24:34.683Z,-4.74
2022-12-13T03:27:09.864Z,-3.54
2022-12-13T03:29:39.558Z,-4.17
2022-12-13T03:32:06.410Z,-4.03
2022-12-13T03:35:00.645Z,-3.88
2022-12-13T03:37:37.785Z,-4.79
2022-12-13T03:40:30.751Z,-4.85
2022-12-13T03:43:13.455Z,-3.68
2022-12-13T03:45:49.686Z,-4.14
2022-12-13T03:48:23.917Z,-4.88
2022-12-13T03:50:56.827Z,-4.12
2022-12-13T03:53:33.242Z,-4.94
2022-12-13T03:56:09.428Z,-4.03
2022-12-13T03:58:38.558Z,-3.80
2022-12-13T04:01:15.432Z,-3.49
2022-12-13T04:03:47.016Z,-4.99
2022-12-13T04:06:33.060Z,-4.14
2022-12-13T04:09:00.460Z,-3.46
2022-12-13T04:11:35.412Z,-3.83
2022-12-13T04:14:02.490Z,-3.68
2022-12-13T04:16:38.734Z,-4.08
2022-12-13T04:19:13.681Z,-4.74
2022-12-13T04:21:44.097Z,-4.72
2022-12-13T04:24:16.555Z,-4.22
2022-12-13T04:26:50.404Z,-5.09
2022-12-13T04:32:26.772Z,-5.23
2022-12-13T04:35:00.859Z,-5.16
2022-12-13T04:37:46.934Z,-3.99
2022-12-13T04:40:25.905Z,-5.31
2022-12-13T04:42:54.279Z,-4.13
2022-12-13T04:45:22.175Z,-5.32
2022-12-13T04:47:48.969Z,-4.21
2022-12-13T04:50:21.991Z,-5.28
2022-12-13T04:53:00.309Z,-4.08
2022-12-13T04:55:27.948Z,-4.01
2022-12-13T04:58:01.196Z,-4.41
2022-12-13T05:00:30.599Z,-3.95
2022-12-13T05:02:59.218Z,-5.33
2022-12-13T05:05:28.761Z,-5.30
2022-12-13T05:08:03.210Z,-5.39
2022-12-13T05:10:37.775Z,-4.22
2022-12-13T05:13:08.232Z,-4.98
2022-12-13T05:15:35.112Z,-4.10
2022-12-13T05:18:10.129Z,-4.73
2022-12-13T05:20:41.540Z,-4.38
2022-12-13T05:23:09.852Z,-4.06
2022-12-13T05:25:36.807Z,-4.90
2022-12-13T05:28:28.640Z,-4.14
2022-12-13T05:30:51.300Z,-5.34
2022-12-13T05:33:18.446Z,-4.26
2022-12-13T05:35:45.490Z,-5.45
2022-12-13T05:38:13.768Z,-3.94
2022-12-13T05:40:40.963Z,-3.94
2022-12-13T05:43:21.822Z,-4.61
2022-12-13T05:45:49.172Z,-3.95
2022-12-13T05:48:24.652Z,-5.57
2022-12-13T05:51:11.185Z,-4.48
2022-12-13T05:53:42.558Z,-4.31
2022-12-13T05:56:14.579Z,-4.27
2022-12-13T05:58:53.496Z,-4.40
2022-12-13T06:01:20.863Z,-4.46
2022-12-13T06:03:53.774Z,-3.94
2022-12-13T06:06:23.119Z,-4.30
2022-12-13T06:08:51.453Z,-4.80
2022-12-13T06:11:31.126Z,-4.41
2022-12-13T06:14:00.640Z,-5.49
2022-12-13T06:16:28.721Z,-5.35
2022-12-13T06:19:04.146Z,-3.99
2022-12-13T06:21:41.788Z,-4.16
2022-12-13T06:24:24.031Z,-5.56
2022-12-13T06:26:51.723Z,-4.89
2022-12-13T06:29:23.149Z,-4.33
2022-12-13T06:32:03.087Z,-5.08
2022-12-13T06:34:32.850Z,-4.33
2022-12-13T06:37:01.046Z,-4.63
2022-12-13T06:39:32.996Z,-4.60
2022-12-13T06:42:01.246Z,-4.39
2022-12-13T06:44:28.245Z,-4.23
2022-12-13T06:47:11.914Z,-3.85
2022-12-13T06:49:41.543Z,-4.24
2022-12-13T06:52:13.457Z,-3.92
2022-12-13T06:54:42.088Z,-4.65
2022-12-13T06:57:10.907Z,-4.36
2022-12-13T06:59:37.797Z,-3.88
2022-12-13T07:02:04.894Z,-4.17
2022-12-13T07:04:35.010Z,-4.29
2022-12-13T07:07:25.108Z,-4.36
2022-12-13T07:09:56.416Z,-4.94
2022-12-13T07:12:36.040Z,-5.06
2022-12-13T07:15:16.193Z,-3.77
2022-12-13T07:17:51.965Z,-3.78
2022-12-13T07:20:44.462Z,-3.79
2022-12-13T07:23:15.537Z,-4.18
2022-12-13T07:25:51.221Z,-4.73
2022-12-13T07:28:18.149Z,-3.82
2022-12-13T07:30:44.912Z,-4.62
2022-12-13T07:33:11.721Z,-4.33
2022-12-13T07:35:55.509Z,-3.74
2022-12-13T07:38:22.816Z,-4.69
2022-12-13T07:41:59.836Z,-4.90
2022-12-13T07:44:59.670Z,-5.30
2022-12-13T07:50:37.370Z,-4.29
2022-12-13T07:53:05.727Z,-3.72
2022-12-13T07:55:42.367Z,-4.78
2022-12-13T07:58:21.672Z,-4.61
2022-12-13T08:00:51.432Z,-5.15
2022-12-13T08:03:24.640Z,-4.05
2022-12-13T08:05:59.055Z,-3.66
2022-12-13T08:08:49.640Z,-4.88
2022-12-13T08:11:23.920Z,-4.35
2022-12-13T08:13:58.734Z,-3.88
2022-12-13T08:16:34.099Z,-3.58
2022-12-13T08:19:08.989Z,-4.66
2022-12-13T08:25:07.722Z,-4.28
2022-12-13T08:27:45.444Z,-3.45
2022-12-13T08:30:18.915Z,-3.80
2022-12-13T08:34:24.391Z,-3.41
2022-12-13T08:39:52.693Z,-3.40
2022-12-13T08:42:36.098Z,-3.63
2022-12-13T08:45:52.085Z,-4.66
2022-12-13T08:48:23.182Z,-4.83
2022-12-13T08:54:31.024Z,-3.70
2022-12-13T08:57:20.474Z,-3.09
2022-12-13T09:00:11.957Z,-4.42
2022-12-13T09:14:52.958Z,-4.24
2022-12-13T09:17:08.993Z,-2.69
2022-12-13T09:21:11.296Z,-3.43
2022-12-13T09:23:45.727Z,-4.01
2022-12-13T09:26:27.101Z,-2.72
2022-12-13T09:35:50.133Z,-2.32
2022-12-13T09:38:20.496Z,-2.39
2022-12-13T09:40:58.300Z,-2.13
2022-12-13T09:44:04.003Z,-3.05
2022-12-13T09:49:52.584Z,-2.31
2022-12-13T09:55:30.693Z,-2.25
2022-12-13T10:05:48.989Z,-1.70
2022-12-13T10:08:32.296Z,-3.08
2022-12-13T10:11:14.020Z,-3.21
2022-12-13T10:14:11.491Z,-1.59
2022-12-13T10:17:15.643Z,-3.12
2022-12-13T10:19:52.164Z,-2.24
2022-12-13T10:22:41.853Z,-1.48
2022-12-13T10:25:45.118Z,-1.69
2022-12-13T10:28:14.442Z,-1.41
2022-12-13T10:30:52.594Z,-2.56
2022-12-13T10:33:24.386Z,-2.52
2022-12-13T10:36:09.866Z,-1.26
2022-12-13T10:38:38.981Z,-2.42
2022-12-13T10:41:26.902Z,-1.27
2022-12-13T10:44:18.494Z,-1.17
2022-12-13T10:46:52.885Z,-1.16
2022-12-13T10:49:22.622Z,-1.60
2022-12-13T10:51:50.201Z,-1.29
2022-12-13T10:54:27.811Z,-1.78
2022-12-13T10:56:57.843Z,-1.75
2022-12-13T10:59:30.203Z,-2.43
2022-12-13T11:01:57.102Z,-1.73
2022-12-13T11:04:30.155Z,-2.24
2022-12-13T11:06:58.480Z,-1.82
2022-12-13T11:09:29.039Z,-2.15
2022-12-13T11:12:14.901Z,-0.78
2022-12-13T11:14:55.824Z,-0.79
2022-12-13T11:17:30.147Z,-2.23
2022-12-13T11:20:00.380Z,-2.15
2022-12-13T11:22:37.978Z,-0.72
2022-12-13T11:25:31.279Z,-1.25
2022-12-13T11:28:26.864Z,-0.95
2022-12-13T11:31:07.876Z,-1.78
2022-12-13T11:33:48.395Z,-1.92
2022-12-13T11:36:30.331Z,-1.06
2022-12-13T11:43:04.840Z,-1.20
2022-12-13T11:46:32.337Z,-0.48
2022-12-13T11:52:45.559Z,-1.70
2022-12-13T12:13:50.786Z,5.22
2022-12-13T12:34:56.816Z,6.52
2022-12-13T12:44:34.056Z,6.14
2022-12-13T14:10:36.771Z,1.64
2022-12-13T14:17:14.851Z,1.61
2022-12-13T14:20:15.794Z,1.46
2022-12-13T14:22:50.956Z,1.05
2022-12-13T14:25:55.366Z,1.31
2022-12-13T14:28:35.320Z,1.22
2022-12-13T14:31:03.921Z,-0.21
2022-12-13T14:33:39.232Z,-0.30
2022-12-13T14:36:18.739Z,0.09
2022-12-13T14:38:45.755Z,0.91
2022-12-13T14:41:17.901Z,0.20
2022-12-13T14:43:50.229Z,-0.72
2022-12-13T14:46:54.101Z,0.78
2022-12-13T14:49:22.274Z,0.44
2022-12-13T14:51:56.554Z,-0.50
2022-12-13T14:54:45.468Z,-0.37
2022-12-13T15:02:39.208Z,-0.95
2022-12-13T15:04:16.895Z,-0.97
2022-12-13T15:09:38.276Z,-1.18
2022-12-13T15:12:23.857Z,-0.40
2022-12-13T15:14:57.638Z,-0.92
2022-12-13T15:17:33.874Z,-0.55
2022-12-13T15:20:27.151Z,-0.34
2022-12-13T15:24:01.046Z,-0.07
2022-12-13T15:36:28.514Z,-0.77
2022-12-13T15:39:01.367Z,-0.41
2022-12-13T15:41:31.475Z,-1.29
2022-12-13T15:47:06.420Z,-1.47
2022-12-13T15:49:44.333Z,-1.16
2022-12-13T15:52:26.394Z,-0.99
2022-12-13T15:54:57.815Z,-1.59
2022-12-13T15:57:41.493Z,-1.07
2022-12-13T16:00:31.666Z,-1.81
2022-12-13T16:03:11.641Z,-2.09
2022-12-13T16:06:33.090Z,-0.67
2022-12-13T16:09:05.144Z,-1.71
2022-12-13T16:11:38.426Z,-1.19
2022-12-13T16:15:09.298Z,-0.73
2022-12-13T17:05:26.924Z,-1.56
2022-12-13T17:49:22.201Z,-1.78
2022-12-13T18:04:54.869Z,-2.67
2022-12-13T18:22:59.340Z,-2.22
2022-12-13T18:29:55.412Z,-2.26
2022-12-13T18:31:59.181Z,-1.96
2022-12-13T18:58:48.661Z,-3.29
2022-12-13T19:12:27.537Z,-3.62
2022-12-13T19:22:47.338Z,-3.67
2022-12-13T19:43:57.818Z,-3.11
2022-12-13T19:50:24.693Z,-3.62
2022-12-13T19:53:01.723Z,-2.19
2022-12-13T19:55:54.946Z,-3.59
2022-12-13T20:01:35.440Z,-2.45
2022-12-13T20:04:27.142Z,-3.30
2022-12-13T20:07:28.639Z,-2.43
2022-12-13T20:10:19.079Z,-2.14
2022-12-13T20:12:52.762Z,-3.16
2022-12-13T20:15:19.957Z,-2.13
2022-12-13T20:18:14.834Z,-2.31
2022-12-13T20:21:12.984Z,-3.58
2022-12-13T20:26:42.006Z,-3.33
2022-12-13T20:29:14.223Z,-2.21
2022-12-13T20:31:55.526Z,-2.22
2022-12-13T20:34:28.338Z,-2.21
2022-12-13T20:36:58.161Z,-2.34
2022-12-13T20:39:34.669Z,-2.15
2022-12-13T20:42:16.106Z,-3.31
2022-12-13T20:44:43.279Z,-3.42
2022-12-13T20:47:17.023Z,-2.76
2022-12-13T20:49:49.496Z,-2.50
2022-12-13T20:52:19.727Z,-2.27
2022-12-13T20:54:50.865Z,-2.78
2022-12-13T20:57:25.496Z,-2.57
2022-12-13T20:59:55.268Z,-2.26
2022-12-13T21:02:33.420Z,-2.26
2022-12-13T21:05:07.617Z,-2.27
2022-12-13T21:07:42.401Z,-2.27
2022-12-13T21:27:15.466Z,-3.58
2022-12-13T21:33:27.886Z,-3.75
2022-12-13T21:37:31.202Z,-2.70
2022-12-13T21:40:33.649Z,-2.40
2022-12-13T21:43:39.219Z,-2.38
2022-12-13T21:49:31.132Z,-3.07
2022-12-13T21:52:49.797Z,-3.67
2022-12-13T21:56:02.250Z,-3.06
2022-12-13T21:59:02.374Z,-2.31
2022-12-13T22:02:08.771Z,-2.76
2022-12-13T22:05:19.164Z,-3.03
2022-12-13T22:08:35.053Z,-3.05
2022-12-13T22:11:48.493Z,-2.29
2022-12-13T22:17:47.108Z,-3.08
2022-12-13T22:20:29.910Z,-2.55
2022-12-13T22:29:39.002Z,-3.08
2022-12-13T22:36:17.116Z,-3.73
2022-12-13T22:39:32.774Z,-3.00
2022-12-13T22:42:55.790Z,-3.74
2022-12-13T22:45:48.722Z,-2.49
2022-12-13T22:51:30.242Z,-3.79
2022-12-13T22:54:35.256Z,-2.47
2022-12-13T22:57:07.669Z,-2.75
2022-12-13T22:59:57.292Z,-3.91
2022-12-13T23:02:40.109Z,-2.54
2022-12-13T23:05:29.196Z,-3.99
2022-12-13T23:08:13.953Z,-3.75
2022-12-13T23:11:08.979Z,-2.90
2022-12-13T23:16:52.666Z,-3.81
2022-12-13T23:20:03.424Z,-3.89
2022-12-13T23:23:37.316Z,-3.89
2022-12-13T23:26:17.902Z,-4.03
2022-12-13T23:29:10.594Z,-2.94
2022-12-13T23:31:49.425Z,-4.00
2022-12-13T23:34:22.357Z,-3.83
2022-12-13T23:37:29.518Z,-3.99
2022-12-13T23:40:45.387Z,-3.92
2022-12-13T23:46:49.263Z,-2.56
2022-12-13T23:49:23.532Z,-2.89
2022-12-13T23:51:58.008Z,-3.75
2022-12-13T23:54:31.416Z,-2.55
